Labs

Pokémon
United States
Tournaments

1205 tournaments, 1203 completed

Alabama
7/20 Saturday
10:00 Huntsville (35801) 1 + 5 + 22 = 28
12:00 Mobile (36618) 3 + 4 + 17 = 24
4:00 Mobile (36618) 1 + 1 + 12 = 14
7/21 Sunday
12:00 Indianapolis (46227) 1 + 1 + 12 = 14
1:30 Copperas Cove (76522) 0 + 1 + 17 = 18
2:00 San Rafael (94901) 4 + 6 + 5 = 15
7/26 Friday
5:00 Maplewood (55109) 0 + 2 + 10 = 12
5:30 Humble (77076) 1 + 2 + 5 = 8
7/27 Saturday
10:00 Cullman (35055) 0 + 0 + 8 = 8
1:00 Birmingham (35244) 1 + 4 + 24 = 29
Alaska
7/24 Wednesday
5:00 Anchorage (99503) 0 + 1 + 10 = 11
7/27 Saturday
12:30 Anchorage (99503) 1 + 0 + 17 = 18
7/28 Sunday
2:00 Fairbanks (99701) 4 + 1 + 12 = 17
Alberta
7/20 Saturday
10:00 WETASKIWIN (T9A3P5) 2 + 5 + 7 = 14
10:15 Calgary (T3C 0K2) 0 + 1 + 7 = 8
10:30 St. Albert (T8N 6A7) 2 + 5 + 11 = 18
11:00 Lethbridge (T1J 2B8) 3 + 3 + 6 = 12
11:00 Edmonton (T5E4C3) 0 + 0 + 17 = 17
12:00 Lloydminster (T9V 2H3) 0 + 1 + 7 = 8
12:30 Calgary (T3C 0K2) 0 + 1 + 7 = 8
1:30 St. Albert (T8N 6A7) 3 + 1 + 6 = 10
1:30 Edmonton (T5E4C3) 1 + 0 + 7 = 8
3:00 Lloydminster (T9V 2H3) 0 + 0 + 8 = 8
7/21 Sunday
10:00 Gatineau (J8T 6H5) 2 + 1 + 13 = 16
10:30 Sherwood Park (T8A4L7) 2 + 0 + 10 = 12
12:00 Calgary (T2E 8P1) 7 + 8 + 15 = 30
12:30 St. Albert (T8N 6A7) 1 + 2 + 9 = 12
7/23 Tuesday
6:00 Edmonton (T5N 1R7) 2 + 1 + 9 = 12
8:15 Edmonton (T5N 1R7) 0 + 0 + 4 = 4
7/25 Thursday
6:00 Lloydminster (T9V 2H3) 0 + 0 + 6 = 6
6:30 St. Albert (T8N 6A7) 3 + 3 + 9 = 15
7/26 Friday
5:30 Calgary (T2E 8P1) 1 + 4 + 21 = 26
7/27 Saturday
10:00 Toronto (M1V 1K4) 2 + 2 + 12 = 16
10:30 St. Albert (T8N 6A7) 8 + 7 + 9 = 24
11:00 Lethbridge (T1J 2B8) 0 + 1 + 3 = 4
12:00 Grande Prairie (T8V 0V3) 5 + 4 + 14 = 23
4:00 Grande Prairie (T8V-0T9) 0 + 1 + 11 = 12
7/28 Sunday
12:00 Edmonton (T5J3K1) 1 + 2 + 6 = 9
12:00 Red Deer (T4N 1T1) 5 + 3 + 16 = 24
12:00 Grande Prairie (T8V 0V3) 3 + 3 + 11 = 17
12:00 Calgary (T2E 8P1) 3 + 5 + 12 = 20
4:00 Grande Prairie (T8V-0T9) 2 + 2 + 16 = 20
Arizona
7/20 Saturday
12:01 Tempe (85281) 0 + 1 + 39 = 40
10:00 Chandler (85226) 2 + 0 + 9 = 11
11:00 Tucson (85719) 0 + 3 + 16 = 19
12:00 Yuma (85364) 1 + 0 + 9 = 10
2:00 Chandler (85226) 1 + 3 + 7 = 11
2:00 Gilbert (85234) 0 + 1 + 10 = 11
3:00 Glendale (85302) 4 + 4 + 46 = 54
4:00 Phoenix (85016) 2 + 1 + 19 = 22
7/21 Sunday
10:00 TEMPE (85282) 1 + 3 + 26 = 30
12:30 Phoenix (85020) 3 + 0 + 25 = 28
1:00 TEMPE (85282) 1 + 1 + 18 = 20
7/22 Monday
6:00 Phoenix (85016) 2 + 0 + 32 = 34
7/23 Tuesday
6:00 Mesa (85204) 2 + 5 + 29 = 36
7/24 Wednesday
3:00 Yuma (85364) 1 + 0 + 7 = 8
5:00 TEMPE (85282) 0 + 10 + 14 = 24
7/27 Saturday
11:00 Anthem/Phoenix (85086) 1 + 1 + 8 = 10
12:00 Phoenix (85028) 0 + 0 + 4 = 4
12:00 Yuma (85364) 1 + 0 + 14 = 15
12:00 Yuma (85364) 0 + 0 + 10 = 10
2:15 Phoenix (85012) 1 + 0 + 23 = 24
7/28 Sunday
2:00 Glendale (85307) 5 + 5 + 26 = 36
Arkansas
7/20 Saturday
9:00 Cabot (72023) 0 + 1 + 27 = 28
10:30 Cabot (72023) 0 + 1 + 27 = 28
12:30 Benton (72019) 0 + 1 + 9 = 10
4:00 Rogers (72756) 2 + 2 + 6 = 10
7/21 Sunday
1:00 Rogers (72758) 2 + 5 + 13 = 20
7/27 Saturday
12:00 SHERWOOD (72120) 2 + 1 + 7 = 10
7/28 Sunday
12:30 Russellville (72801) 0 + 2 + 28 = 30
British Columbia
7/20 Saturday
12:01 Prince George (V2M 0A1) 2 + 0 + 8 = 10
9:00 Mission (V2V1E4) 0 + 0 + 4 = 4
10:00 Fort St. John (V1J 1Y7) 3 + 1 + 8 = 12
10:00 Mission (V2V1E4) 6 + 3 + 6 = 15
11:00 Vancouver (V5R 5W2) 4 + 1 + 30 = 35
1:00 Langley (V4W4G1) 5 + 4 + 18 = 27
1:00 Abbotsford (V253X8) 2 + 1 + 3 = 6
4:30 Langley (V4W4G1) 3 + 3 + 10 = 16
6:00 Vancouver (V5K 1Z9) 1 + 1 + 8 = 10
7:00 Langley (V4W4G1) 0 + 1 + 10 = 11
7/21 Sunday
11:00 Vancouver (V5R 5W2) 2 + 2 + 15 = 19
11:00 Surrey (V3T2W1) 0 + 3 + 4 = 7
12:30 Prince George (V2M 0A1) 2 + 1 + 7 = 10
1:00 Vancouver (V5K 1Z9) 1 + 0 + 7 = 8
1:00 Abbotsford (V253X8) 6 + 2 + 9 = 17
7/22 Monday
4:00 Richmond (V6X 0J8) 0 + 1 + 13 = 14
7/26 Friday
4:00 Nanaimo (V9T4K6) 0 + 14 + 36 = 50
4:30 Burnaby (V5H 2C3) 0 + 0 + 10 = 10
6:00 Langley (V4W4G1) 3 + 3 + 12 = 18
7/27 Saturday
9:00 Prince George (V2N6H9) 0 + 1 + 3 = 4
1:00 Langley (V4W4G1) 1 + 4 + 9 = 14
2:30 New Westminister (V3L2B8) 0 + 1 + 9 = 10
4:30 Langley (V4W4G1) 2 + 5 + 10 = 17
7/28 Sunday
11:00 Surrey (V3T2W1) 1 + 5 + 8 = 14
11:30 Victoria (V8T 4E4) 5 + 2 + 12 = 19
11:30 Port Coquitlam (V3B 3N4) 1 + 3 + 14 = 18
12:00 Chilliwack (V2P2N2) 1 + 4 + 8 = 13
12:30 Prince George (V2M 0A1) 1 + 1 + 8 = 10
1:00 Vancouver (V5K 1Z9) 0 + 0 + 10 = 10
2:00 Chilliwack (V2P2N2) 0 + 4 + 5 = 9
California
7/20 Saturday
San Diego (92101) 10 + 10 + 48 = 68
12:01 Fresno (93712-3929) 1 + 0 + 9 = 10
12:01 Winnetka (91306) 0 + 0 + 25 = 25
12:01 Fresno (93720) 0 + 1 + 20 = 21
12:15 Temecula (92591) 4 + 5 + 30 = 39
10:00 Anderson (96007) 4 + 1 + 17 = 22
10:00 Glendale (91203) 1 + 5 + 46 = 52
10:00 Concord (94520) 2 + 6 + 39 = 47
10:00 Bakersfield (93313) 3 + 6 + 29 = 38
10:00 Bakersfield (93313) 0 + 3 + 9 = 12
10:00 Temecula (92592) 3 + 1 + 12 = 16
10:30 Modesto (95350) 6 + 3 + 24 = 33
11:00 Winnetka (91306) 1 + 1 + 12 = 14
11:00 Winnetka (91306) 1 + 1 + 6 = 8
11:00 Winnetka (91306) 0 + 0 + 7 = 7
11:00 Hesperia (92345) 2 + 0 + 8 = 10
11:00 Los Angeles (90019) 5 + 4 + 17 = 26
11:15 Santa Clara (95054) 4 + 12 + 37 = 53
12:00 Clovis (93612) 5 + 0 + 7 = 12
12:00 Fountain Valley (92708) 2 + 3 + 31 = 36
12:00 Westlake Village (91362) 1 + 0 + 8 = 9
12:00 Fresno (93720) 0 + 0 + 6 = 6
12:00 San Francisco (94117) 1 + 0 + 9 = 10
1:00 Downey (90240) 1 + 5 + 26 = 32
1:00 Riverside (92503) 2 + 1 + 24 = 27
2:00 Baldwin Park (91706) 1 + 3 + 18 = 22
2:00 Mission Viejo (92692) 5 + 5 + 15 = 25
2:00 Los Angeles (90019) 0 + 0 + 18 = 18
2:30 Elk Grove (95624) 2 + 5 + 22 = 29
2:30 San Francisco (94117) 6 + 1 + 13 = 20
2:45 Santa Clara (95054) 15 + 7 + 47 = 69
3:30 Northridge (91324) 4 + 1 + 9 = 14
4:00 Torrance (90503) 2 + 2 + 17 = 21
5:00 Riverside (92503) 0 + 0 + 18 = 18
11:00 Northridge (91324) 0 + 3 + 6 = 9
7/21 Sunday
9:00 Montebello (90640) 0 + 1 + 21 = 22
10:00 Pasadena (91105) 0 + 2 + 18 = 20
10:00 Fremont (94536) 3 + 3 + 19 = 25
10:30 Berkeley (94704) 4 + 0 + 15 = 19
11:00 Winnetka (91306) 1 + 1 + 4 = 6
11:00 Winnetka (91306) 1 + 0 + 6 = 7
11:00 Winnetka (91306) 0 + 0 + 9 = 9
11:00 Norwalk (90650) 0 + 1 + 7 = 8
11:00 Roseville (95661) 6 + 1 + 23 = 30
11:00 Fresno (93710) 0 + 0 + 7 = 7
11:00 pasadena (91326-4110) 4 + 3 + 25 = 32
11:15 Santa Clara (95054) 5 + 2 + 32 = 39
11:30 Northridge (91324) 8 + 2 + 13 = 23
11:30 Temecula (92591) 4 + 4 + 15 = 23
12:00 Signal Hill (90755) 3 + 0 + 9 = 12
12:00 Upland (91786) 3 + 4 + 17 = 24
12:00 Eureka (95501) 4 + 4 + 20 = 28
12:00 Chatsworth (91311) 0 + 0 + 5 = 5
12:00 Oceanside (92058) 3 + 3 + 12 = 18
1:00 Downey (90240) 5 + 5 + 15 = 25
1:00 Riverside (92503) 1 + 0 + 13 = 14
1:30 Elk Grove (95624) 4 + 14 + 41 = 59
2:00 Berkeley (94704) 2 + 1 + 17 = 20
2:45 Santa Clara (95054) 2 + 3 + 36 = 41
3:00 Upland (91786) 0 + 0 + 10 = 10
3:00 Chatsworth (91311) 0 + 0 + 4 = 4
5:00 Riverside (92503) 0 + 0 + 12 = 12
5:30 Davis (95616) 0 + 2 + 10 = 12
7/23 Tuesday
3:00 Downey (90240) 2 + 2 + 18 = 22
5:00 San Francisco (94117) 11 + 3 + 13 = 27
5:30 Sacramento (95833) 0 + 0 + 7 = 7
6:00 Riverside (92503) 3 + 1 + 22 = 26
6:00 Winnetka (91306) 0 + 0 + 12 = 12
7/24 Wednesday
10:00 Oceanside (92058) 4 + 4 + 8 = 16
5:00 Northridge (91324) 0 + 0 + 8 = 8
6:00 Clovis (93612) 2 + 3 + 14 = 19
6:00 Salinas (93906) 0 + 3 + 7 = 10
6:30 Davis (95616) 5 + 1 + 6 = 12
7/26 Friday
4:00 Winnetka (91306) 0 + 0 + 4 = 4
5:00 Torrance (90503) 5 + 7 + 12 = 24
5:00 Northridge (91324) 1 + 2 + 14 = 17
6:00 Fresno (93710) 0 + 0 + 11 = 11
6:00 Elk Grove (95624) 0 + 1 + 11 = 12
7:00 Northridge (91324) 0 + 0 + 9 = 9
7/27 Saturday
San Diego (92126) 0 + 2 + 17 = 19
Alameda (94501)
11:00 Hesperia (92345) 3 + 3 + 16 = 22
11:00 Winnetka (91306) 0 + 0 + 6 = 6
11:00 Winnetka (91306) 1 + 1 + 2 = 4
11:00 Hesperia (92345) 1 + 0 + 7 = 8
11:00 San Marcos (92078) 0 + 1 + 20 = 21
11:15 Santa Clara (95054) 6 + 4 + 32 = 42
11:30 Northridge (91324) 0 + 1 + 7 = 8
12:00 Huntington Beach (92648) 1 + 1 + 15 = 17
12:00 Folsom (95630) 0 + 2 + 6 = 8
12:00 Signal Hill (90755) 0 + 0 + 8 = 8
12:30 Santa Maria (93454) 0 + 0 + 9 = 9
2:00 Mission Viejo (92692) 3 + 13 + 12 = 28
2:30 Northridge (91324) 1 + 2 + 5 = 8
7/28 Sunday
9:00 Lemon Grove (91945) 1 + 3 + 20 = 24
10:00 Lancaster (93534) 2 + 0 + 13 = 15
10:00 Temecula (92592) 3 + 4 + 23 = 30
10:30 Santa Clara (95050) 0 + 5 + 12 = 17
11:00 Winnetka (91306) 0 + 0 + 8 = 8
11:00 Santa Clara (95051) 2 + 0 + 6 = 8
11:00 Berkeley (94704) 1 + 5 + 18 = 24
11:00 pasadena (91326-4110) 2 + 4 + 12 = 18
11:30 Northridge (91324) 2 + 1 + 9 = 12
12:00 Upland (91786) 3 + 3 + 8 = 14
12:00 Santa Monica (90401) 3 + 1 + 8 = 12
12:00 Chatsworth (91311) 0 + 0 + 4 = 4
12:30 Redding (96003) 2 + 0 + 6 = 8
2:00 Hanford (93230) 4 + 4 + 14 = 22
2:30 Northridge (91324) 1 + 2 + 8 = 11
Colorado
7/20 Saturday
12:01 Fort Collins (80526) 0 + 1 + 22 = 23
1:30 Fort Collins (80526) 0 + 1 + 13 = 14
9:00 Colorado Springs (80918) 3 + 5 + 8 = 16
10:00 Littleton (80123) 1 + 0 + 15 = 16
10:30 Colorado Springs (80918) 4 + 6 + 22 = 32
11:00 Pueblo (81001) 0 + 0 + 6 = 6
12:00 Aurora (80012) 2 + 1 + 13 = 16
1:00 Littleton (80123) 0 + 0 + 12 = 12
1:00 Greeley (80631) 1 + 1 + 6 = 8
1:30 Johnstown (80534) 0 + 1 + 7 = 8
3:00 Arvada (80003) 1 + 5 + 9 = 15
11:00 Johnstown (80534) 0 + 0 + 7 = 7
7/21 Sunday
1:00 Littleton (80123) 3 + 6 + 18 = 27
1:30 Johnstown (80534) 1 + 1 + 4 = 6
7/26 Friday
6:30 Johnstown (80534) 1 + 1 + 6 = 8
7/27 Saturday
10:00 Colorado Springs (80918) 3 + 5 + 15 = 23
11:00 Grand Junction (81501) 1 + 3 + 6 = 10
2:00 Longmont (80501) 1 + 5 + 9 = 15
2:30 Colorado Springs (80909) 2 + 5 + 15 = 22
5:00 Pueblo (81001) 0 + 3 + 6 = 9
7/28 Sunday
10:00 Denver (80203) 0 + 0 + 11 = 11
11:00 Pueblo (81001) 1 + 0 + 5 = 6
11:30 Fort Collins (80526) 0 + 0 + 8 = 8
1:00 Fort Collins (80526) 5 + 6 + 11 = 22
1:00 Aurora (80014) 1 + 4 + 15 = 20
Connecticut
7/20 Saturday
11:00 Enfield (06082) 2 + 4 + 28 = 34
11:00 Newington (06111) 2 + 0 + 25 = 27
2:00 Newington (06111) 1 + 0 + 12 = 13
3:00 Enfield (06082) 0 + 1 + 25 = 26
7/21 Sunday
11:00 Enfield (06082) 1 + 4 + 15 = 20
7/27 Saturday
11:00 Manchester (06040) 0 + 0 + 9 = 9
11:00 Newington (06111) 1 + 1 + 17 = 19
2:00 Newington (06111) 0 + 2 + 6 = 8
Delaware
7/20 Saturday
9:00 smyrna (19977) 10 + 7 + 10 = 27
7/28 Sunday
12:00 Wilmington (19810) 2 + 3 + 13 = 18
2:30 Wilmington (19810) 1 + 3 + 10 = 14
District of Columbia
7/21 Sunday
11:30 Washington (20003) 6 + 9 + 14 = 29
Florida
7/20 Saturday
11:00 Clermont (34711) 2 + 4 + 18 = 24
11:00 Hollywood (33024) 0 + 3 + 36 = 39
11:00 Cape Coral (33990) 5 + 6 + 11 = 22
11:00 Tampa (33617) 0 + 2 + 28 = 30
11:00 Maitland (32751) 6 + 1 + 46 = 53
11:00 Pensacola (32504) 0 + 2 + 8 = 10
11:00 Plantation (33317) 3 + 1 + 13 = 17
12:00 Ocala (34470) 0 + 3 + 6 = 9
1:30 Palm Bay (32905) 1 + 1 + 6 = 8
2:00 Cape Coral (33990) 0 + 0 + 6 = 6
4:00 Winter Haven (33884) 0 + 0 + 14 = 14
4:00 Clermont (34711) 1 + 2 + 6 = 9
5:00 Bradenton (34203) 3 + 1 + 10 = 14
5:30 Jacksonville (32205) 0 + 1 + 18 = 19
6:00 Davie (33024) 1 + 3 + 30 = 34
7:00 Bradenton (34203) 0 + 1 + 7 = 8
7/21 Sunday
11:00 Lake Worth (33462) 0 + 0 + 16 = 16
11:00 Tallahassee (32310-4805) 0 + 0 + 4 = 4
11:00 SARASOTA (34232) 1 + 3 + 12 = 16
12:00 Miami (33174) 2 + 0 + 15 = 17
12:00 Jacksonville (32216) 1 + 0 + 19 = 20
2:30 Tallahassee (32310-4805) 2 + 2 + 9 = 13
3:30 Seminole (33772) 0 + 0 + 20 = 20
7/22 Monday
3:00 Orlando (32828) 6 + 9 + 40 = 55
4:00 Orlando (32828) 4 + 5 + 18 = 27
5:30 Orlando (32828) 0 + 3 + 24 = 27
6:00 Fort Myers (33908) 5 + 1 + 11 = 17
7:30 Orlando (32828) 1 + 1 + 9 = 11
7/23 Tuesday
6:30 Tallahassee (32310-4805) 0 + 0 + 4 = 4
7/24 Wednesday
9:00 SARASOTA (34232) 0 + 0 + 7 = 7
5:00 Cape Coral (33990) 3 + 4 + 13 = 20
6:00 Orlando (32837) 1 + 1 + 30 = 32
9:00 Orlando (32837) 0 + 0 + 5 = 5
7/25 Thursday
3:00 Crestview (32536) 4 + 3 + 15 = 22
5:30 Tampa (33647) 5 + 6 + 9 = 20
5:30 Tampa (33619) 5 + 4 + 49 = 58
6:00 Port Saint Lucie (34952-1415) 0 + 1 + 21 = 22
6:00 Miami (33186) 2 + 4 + 45 = 51
7/26 Friday
12:00 Port Saint Lucie (34952-1415) 1 + 2 + 5 = 8
5:00 Cape Coral (33990) 0 + 0 + 4 = 4
6:30 Kissimmee (34741) 1 + 2 + 13 = 16
7/27 Saturday
10:30 Cocoa (32927) 2 + 1 + 16 = 19
10:30 Tampa (33647) 5 + 4 + 15 = 24
11:00 Lauderhill (33351) 0 + 0 + 27 = 27
11:30 PALM HARBOR (34684) 6 + 4 + 17 = 27
12:00 Crestview (32536) 3 + 4 + 10 = 17
1:30 Palm Bay (32905) 0 + 1 + 7 = 8
5:00 Altamonte Springs (32701) 1 + 2 + 17 = 20
6:00 Davie (33024) 0 + 3 + 7 = 10
7/28 Sunday
11:00 PANAMA CITY (32401) 0 + 1 + 5 = 6
11:00 Orlando (32803) 2 + 6 + 18 = 26
11:00 Coconut Creek (33073) 5 + 1 + 13 = 19
12:00 Miami (33174) 1 + 2 + 11 = 14
12:30 West Melbourne (32904) 6 + 4 + 11 = 21
1:00 West Palm Beach (33409) 2 + 2 + 6 = 10
2:00 Altamonte Springs (32701) 3 + 2 + 12 = 17
2:00 PANAMA CITY (32401) 0 + 1 + 9 = 10
2:30 Tallahassee (32310) 1 + 1 + 12 = 14
Georgia
7/20 Saturday
12:01 Duluth (30096) 2 + 6 + 41 = 49
12:01 Roswell (30075) 0 + 0 + 21 = 21
12:01 Macon (31206) 4 + 0 + 24 = 28
11:00 Cumming (30040) 4 + 6 + 23 = 33
11:30 Smyrna (30080) 2 + 3 + 9 = 14
12:00 COLUMBUS (31909) 0 + 4 + 12 = 16
12:00 Chamblee (30341) 0 + 0 + 5 = 5
12:00 Duluth (30096) 3 + 4 + 5 = 12
12:00 Roswell (30075) 1 + 3 + 4 = 8
12:30 Newnan (30263) 3 + 1 + 7 = 11
1:30 Cumming (30040) 2 + 8 + 12 = 22
2:30 Smyrna (30080) 3 + 2 + 11 = 16
3:00 Macon (31206) 1 + 3 + 13 = 17
6:00 Decatur (30033) 2 + 2 + 9 = 13
7/21 Sunday
1:00 Newnan (30265) 1 + 4 + 6 = 11
1:00 Milton (30004) 0 + 3 + 6 = 9
7/22 Monday
6:00 Newnan (30263) 2 + 1 + 1 = 4
7/24 Wednesday
4:00 Kennesaw (30144) 3 + 4 + 16 = 23
7/26 Friday
6:00 Duluth (30096) 1 + 3 + 16 = 20
7/27 Saturday
10:00 Braselton (30542) 3 + 8 + 15 = 26
11:00 Warner Robins (31088) 0 + 0 + 10 = 10
12:00 Augusta (30907) 3 + 2 + 17 = 22
12:00 Augusta (30907) 6 + 5 + 17 = 28
12:00 Newnan (30263) 0 + 1 + 5 = 6
3:00 Macon (31206) 0 + 4 + 8 = 12
5:00 Peachtree City (30269) 0 + 2 + 14 = 16
7/28 Sunday
12:00 COLUMBUS (31909) 1 + 5 + 15 = 21
12:30 Milton (30004) 2 + 4 + 4 = 10
Hawaii
7/20 Saturday
12:00 HONOLULU (96817) 2 + 1 + 9 = 12
2:30 HONOLULU (96817) 1 + 1 + 8 = 10
11:00 Honolulu (96814) 1 + 0 + 6 = 7
7/21 Sunday
1:00 Honolulu (96814) 0 + 1 + 3 = 4
1:00 HONOLULU (96817) 0 + 0 + 6 = 6
4:00 Honolulu (96814) 0 + 1 + 9 = 10
7/27 Saturday
12:00 HONOLULU (96817) 4 + 3 + 14 = 21
1:00 Honolulu (96814) 2 + 1 + 6 = 9
3:00 HONOLULU (96817) 1 + 1 + 8 = 10
4:00 Honolulu (96814) 0 + 2 + 2 = 4
Idaho
7/20 Saturday
10:00 Idaho Falls (83402) 7 + 8 + 15 = 30
7/27 Saturday
11:00 Meridian (83642) 4 + 2 + 21 = 27
Illinois
7/20 Saturday
Chicago (60607) 10 + 4 + 6 = 20
12:01 Berwyn (60402) 1 + 2 + 28 = 31
12:01 Geneva (60134) 0 + 1 + 7 = 8
9:30 Downers Grove (60515) 9 + 8 + 15 = 32
10:00 Berwyn (60402) 0 + 3 + 13 = 16
11:00 urbana (61801) 2 + 1 + 8 = 11
11:00 Chicago (60611) 1 + 1 + 6 = 8
12:00 Springfield (62703) 4 + 6 + 18 = 28
12:00 Quincy (62305) 1 + 0 + 14 = 15
12:00 Washington (61571) 2 + 5 + 15 = 22
12:00 Loves Park (61111) 5 + 0 + 9 = 14
12:30 Plainfield (60544) 2 + 0 + 12 = 14
1:00 Glenview (60025) 1 + 2 + 6 = 9
2:00 Antioch (60002) 0 + 3 + 6 = 9
2:00 Berwyn (60402) 0 + 2 + 9 = 11
2:30 Frankfort (60423) 3 + 1 + 10 = 14
3:00 Loves Park (61111) 0 + 0 + 10 = 10
4:00 Chicago (60614) 0 + 2 + 18 = 20
6:00 ROCKFORD (61108) 1 + 0 + 3 = 4
7/21 Sunday
10:00 Berwyn (60402) 0 + 0 + 10 = 10
12:00 Edwardsville (62025) 4 + 5 + 11 = 20
12:00 Oak Park (60302) 8 + 3 + 2 = 13
12:00 Buffalo Grove (60089) 3 + 1 + 12 = 16
12:00 Tinley Park (60477) 0 + 0 + 20 = 20
12:00 Westmont (60559) 0 + 2 + 6 = 8
12:30 Skokie (60077) 3 + 6 + 13 = 22
1:00 Loves Park (61111) 1 + 3 + 6 = 10
2:00 Antioch (60002) 0 + 1 + 7 = 8
2:00 Berwyn (60402) 0 + 0 + 20 = 20
4:00 ROCKFORD (61108) 0 + 0 + 5 = 5
7/22 Monday
5:00 Niles (60714) 8 + 6 + 8 = 22
8:15 Niles (60714) 3 + 3 + 6 = 12
7/23 Tuesday
5:00 Niles (60714) 7 + 3 + 12 = 22
7/24 Wednesday
4:00 Loves Park (61111) 4 + 6 + 11 = 21
5:00 Antioch (60002) 0 + 0 + 8 = 8
7/25 Thursday
6:00 Chicago (60614) 0 + 0 + 8 = 8
6:30 Skokie (60077) 1 + 2 + 9 = 12
7/26 Friday
5:00 Antioch (60002) 2 + 0 + 6 = 8
6:15 Buffalo Grove (60089) 1 + 1 + 11 = 13
7/27 Saturday
9:00 Carbondale (62901) 0 + 1 + 7 = 8
10:00 Berwyn (60402) 2 + 1 + 18 = 21
11:00 Chicago (60611) 0 + 0 + 9 = 9
11:00 Urbana (61801) 2 + 2 + 6 = 10
12:00 Springfield (62703) 0 + 4 + 8 = 12
12:00 Loves Park (61111) 6 + 3 + 6 = 15
12:00 Chicago (60618) 0 + 0 + 5 = 5
2:00 Antioch (60002) 0 + 0 + 20 = 20
2:00 Berwyn (60402) 2 + 1 + 16 = 19
2:30 Frankfort (60423) 0 + 2 + 10 = 12
3:00 Loves Park (61111) 1 + 2 + 7 = 10
6:00 ROCKFORD (61108) 0 + 0 + 5 = 5
7/28 Sunday
10:00 Berwyn (60402) 0 + 1 + 8 = 9
12:00 Buffalo Grove (60089) 2 + 1 + 12 = 15
12:00 Edwardsville (62025) 2 + 3 + 7 = 12
12:00 Bloomington (61701) 4 + 4 + 8 = 16
12:30 Skokie (60077) 1 + 3 + 10 = 14
1:00 Loves Park (61111) 0 + 0 + 4 = 4
1:00 Chicago (60618) 0 + 0 + 9 = 9
2:00 Antioch (60002) 0 + 0 + 8 = 8
2:00 Berwyn (60402) 0 + 3 + 18 = 21
4:00 ROCKFORD (61108) 0 + 1 + 3 = 4
Indiana
7/20 Saturday
3:00 Greenfield (46140) 1 + 3 + 4 = 8
10:00 Indianapolis (46227) 2 + 0 + 14 = 16
10:00 Corydon (47112) 3 + 1 + 6 = 10
10:00 Anderson (46013) 0 + 0 + 12 = 12
11:00 Corydon (47112) 3 + 1 + 5 = 9
11:00 Lafayette (47904) 1 + 0 + 10 = 11
11:00 Indianapolis (46250) 1 + 1 + 10 = 12
1:00 Indianapolis (46227) 2 + 0 + 16 = 18
2:00 Muncie (47303) 0 + 0 + 8 = 8
2:00 Indianapolis (46250) 3 + 0 + 9 = 12
3:00 Indianapolis (46268) 1 + 6 + 7 = 14
5:00 Evansville (47711) 0 + 1 + 7 = 8
6:00 Evansville (47711) 0 + 0 + 8 = 8
7/21 Sunday
11:00 Indianapolis (46268) 1 + 3 + 4 = 8
12:00 Evansville (47711) 0 + 0 + 9 = 9
12:00 Indianapolis (46250) 4 + 0 + 11 = 15
1:00 Evansville (47711) 0 + 0 + 8 = 8
2:00 Muncie (47303) 2 + 0 + 4 = 6
5:00 Muncie (47303) 1 + 0 + 5 = 6
7/22 Monday
5:30 Indianapolis (46227) 7 + 4 + 46 = 57
7/23 Tuesday
5:30 Mooresville (46158) 3 + 6 + 10 = 19
7/25 Thursday
4:20 Indianapolis (46241) 5 + 3 + 4 = 12
7/26 Friday
5:00 Evansville (47711) 5 + 0 + 3 = 8
6:00 Evansville (47711) 1 + 1 + 6 = 8
7/27 Saturday
10:30 Indianapolis (46227) 3 + 2 + 13 = 18
11:00 Evansville (47711) 0 + 1 + 7 = 8
11:00 Lafayette (47904) 1 + 1 + 9 = 11
11:00 Indianapolis (46250) 1 + 1 + 4 = 6
1:00 Evansville (47711) 0 + 1 + 7 = 8
1:30 Indianapolis (46227) 1 + 2 + 7 = 10
2:00 Indianapolis (46250) 0 + 0 + 5 = 5
3:00 Indianapolis (46268) 3 + 4 + 10 = 17
5:00 Evansville (47711) 0 + 1 + 7 = 8
6:00 Evansville (47711) 0 + 0 + 8 = 8
7/28 Sunday
9:00 South Bend (46637) 0 + 0 + 7 = 7
12:00 Evansville (47711) 1 + 1 + 7 = 9
12:00 Indianapolis (46250) 1 + 1 + 12 = 14
12:30 Bloomington (47404) 3 + 5 + 11 = 19
1:00 Evansville (47711) 1 + 0 + 7 = 8
1:00 Indianapolis (46236) 3 + 0 + 3 = 6
4:00 Anderson (46013) 0 + 0 + 14 = 14
Iowa
7/20 Saturday
10:00 Ames (50014) 1 + 10 + 19 = 30
7/21 Sunday
11:00 Des Moines (50325) 3 + 9 + 18 = 30
Kansas
7/20 Saturday
12:01 Lenexa (66210) 0 + 0 + 10 = 10
12:15 Lenexa (66210) 0 + 0 + 8 = 8
12:30 Lawrence (66044) 1 + 2 + 5 = 8
1:00 Hutchinson (67501) 0 + 1 + 11 = 12
2:30 Leavenworth (66048) 6 + 5 + 12 = 23
2:30 Lenexa (66210) 0 + 3 + 8 = 11
3:00 Lawrence (66044) 1 + 3 + 10 = 14
7/21 Sunday
11:00 Wichita (67218) 3 + 1 + 15 = 19
12:15 Lenexa (66210) 3 + 5 + 13 = 21
12:30 Lawrence (66044) 2 + 5 + 13 = 20
12:30 MISSION (66202) 5 + 1 + 10 = 16
2:30 Lenexa (66210) 3 + 6 + 22 = 31
7/23 Tuesday
9:00 Great Bend (67530) 5 + 7 + 3 = 15
7/27 Saturday
9:00 Great Bend (67530) 1 + 2 + 7 = 10
2:30 Leavenworth (66048) 4 + 4 + 9 = 17
Kentucky
7/20 Saturday
12:01 Louisville (40214) 0 + 0 + 35 = 35
2:30 Murray (42071) 1 + 2 + 8 = 11
7:00 Louisville (40214) 1 + 3 + 17 = 21
7/21 Sunday
12:00 PADUCAH (42001) 1 + 0 + 7 = 8
5:00 Louisville (40214) 3 + 2 + 26 = 31
7/27 Saturday
11:00 Lexington (40503) 1 + 2 + 5 = 8
12:00 Louisville (40220) 2 + 2 + 18 = 22
7:00 Louisville (40214) 0 + 2 + 20 = 22
7/28 Sunday
11:00 Lexington (40503) 1 + 2 + 13 = 16
2:00 Louisville (40220) 3 + 3 + 25 = 31
Louisiana
7/20 Saturday
11:00 West Monroe (71291) 0 + 4 + 15 = 19
7/21 Sunday
1:00 Baton Rogue (70816) 5 + 0 + 11 = 16
2:00 Metairie (70003) 3 + 1 + 7 = 11
7/23 Tuesday
12:00 Broussard (70518) 0 + 2 + 6 = 8
7/25 Thursday
9:00 Prairieville (70769) 3 + 2 + 13 = 18
7/28 Sunday
12:00 Baton Rouge (70817) 5 + 5 + 17 = 27
12:00 Bossier City (71111) 0 + 1 + 10 = 11
12:00 Lafayette (70503) 2 + 1 + 8 = 11
Maine
7/28 Sunday
12:00 Westbrook (04092) 5 + 4 + 15 = 24
Manitoba
7/20 Saturday
11:00 Winnipeg (R2G 1L4) 1 + 2 + 15 = 18
7/28 Sunday
12:00 Winnipeg (R3T 2C5) 1 + 3 + 16 = 20
Maryland
7/20 Saturday
11:00 Annapolis (21401) 7 + 6 + 24 = 37
3:00 Annapolis (21401) 6 + 1 + 14 = 21
7/21 Sunday
11:00 Glen Burnie (21061) 6 + 6 + 16 = 28
11:30 Rockville (20852) 3 + 8 + 31 = 42
1:00 California (20619) 7 + 6 + 23 = 36
2:00 Rockville (20852) 2 + 0 + 8 = 10
7/26 Friday
6:00 Rockville (20852) 1 + 1 + 7 = 9
7/27 Saturday
9:00 Abingdon (21009) 7 + 5 + 17 = 29
11:30 Rockville (20852) 5 + 3 + 7 = 15
1:30 Rockville (20852) 0 + 1 + 3 = 4
7/28 Sunday
11:30 Rockville (20852) 7 + 4 + 9 = 20
12:00 Hunt Valley (21030) 5 + 7 + 9 = 21
1:00 California (20619) 7 + 7 + 16 = 30
2:00 Rockville (20852) 1 + 3 + 8 = 12
Massachusetts
7/20 Saturday
9:45 Lexington (02420) 3 + 3 + 19 = 25
10:30 CARVER (02330) 3 + 3 + 10 = 16
6:00 danvers (01923) 3 + 1 + 6 = 10
7/21 Sunday
9:00 Somerville (02144) 0 + 1 + 5 = 6
10:00 Lexington (02421) 5 + 2 + 2 = 9
10:00 SALEM (01970) 1 + 2 + 11 = 14
11:00 Hadley (01035) 2 + 1 + 8 = 11
11:00 Somerville (02144) 7 + 1 + 9 = 17
12:00 Fall River (02723) 0 + 2 + 6 = 8
12:00 BROCKTON (02302) 0 + 1 + 9 = 10
12:30 Saugus (01906) 1 + 3 + 15 = 19
7/27 Saturday
12:30 Abington (02351) 2 + 1 + 5 = 8
7/28 Sunday
11:30 Brookline (02446) 0 + 3 + 7 = 10
12:00 Fall River (02723) 1 + 1 + 4 = 6
12:30 Norton (02766) 4 + 1 + 18 = 23
Michigan
7/20 Saturday
11:00 Jackson (49201) 3 + 1 + 16 = 20
11:30 Garden City (48135) 2 + 4 + 19 = 25
11:30 Warren (48089) 3 + 4 + 23 = 30
12:00 Kalamazoo (49009) 3 + 1 + 17 = 21
12:00 Clinton Township (48038) 1 + 4 + 15 = 20
12:00 Bay City (48706) 1 + 0 + 11 = 12
1:00 Muskegon (49441) 3 + 2 + 13 = 18
1:00 Flint (48503) 1 + 1 + 12 = 14
1:30 Warren (48089) 2 + 3 + 20 = 25
2:00 Jackson (49201) 2 + 0 + 10 = 12
3:00 Clinton Township (48038) 0 + 3 + 12 = 15
3:00 Bay City (48706) 0 + 0 + 8 = 8
3:30 Garden City (48135) 2 + 2 + 9 = 13
3:30 Warren (48089) 0 + 2 + 11 = 13
5:00 Kalamazoo (49009) 0 + 1 + 16 = 17
5:00 Jackson (49201) 1 + 0 + 11 = 12
7:31 Flint (48503) 0 + 0 + 6 = 6
11:00 Clinton Township (48038) 0 + 2 + 22 = 24
7/21 Sunday
11:00 Westland (48185) 0 + 3 + 12 = 15
11:00 East Lansing (48823) 1 + 1 + 18 = 20
12:00 Clinton Township (48038) 2 + 1 + 10 = 13
12:00 Frankenmuth (48734) 3 + 2 + 8 = 13
3:00 Frankenmuth (48734) 2 + 1 + 7 = 10
7/23 Tuesday
5:00 Ludington (49431) 0 + 0 + 8 = 8
7/24 Wednesday
6:00 Garden City (48135) 3 + 2 + 12 = 17
7/27 Saturday
11:30 Garden City (48135) 2 + 0 + 14 = 16
12:00 Clinton Township (48038) 1 + 4 + 12 = 17
12:00 Frankenmuth (48734) 3 + 1 + 8 = 12
3:00 Clinton Township (48038) 1 + 0 + 10 = 11
3:30 Garden City (48135) 0 + 0 + 20 = 20
4:00 Battle Creek (49015) 2 + 2 + 8 = 12
Minnesota
7/20 Saturday
9:00 Duluth (55807) 3 + 4 + 20 = 27
10:00 Burnsville (55306) 1 + 5 + 19 = 25
10:15 Roseville (55113) 7 + 8 + 25 = 40
11:00 northfield (55057) 7 + 6 + 10 = 23
12:00 Mankato (56001) 3 + 6 + 11 = 20
1:00 Burnsville (55306) 0 + 2 + 5 = 7
7/21 Sunday
9:00 Duluth (55807) 2 + 2 + 14 = 18
12:00 Champlin (55316) 4 + 5 + 24 = 33
7/27 Saturday
10:00 Saint Louis Park (55426) 6 + 14 + 31 = 51
12:00 Mankato (56001) 1 + 5 + 4 = 10
1:30 Winona (55987) 2 + 5 + 3 = 10
7/28 Sunday
12:00 Minneapolis (55406) 4 + 6 + 20 = 30
Mississippi
7/20 Saturday
11:00 Gautier (39553) 4 + 1 + 11 = 16
12:00 Ridgeland (39157) 0 + 1 + 7 = 8
2:00 Pearl (39208) 0 + 1 + 3 = 4
5:00 Pearl (39208) 0 + 1 + 3 = 4
7/21 Sunday
12:00 Tupelo (38804) 2 + 1 + 13 = 16
12:00 Ridgeland (39157) 2 + 0 + 6 = 8
12:00 Gautier (39553) 0 + 0 + 12 = 12
2:00 Pearl (39208) 1 + 2 + 9 = 12
7/23 Tuesday
4:00 Gautier (39553) 0 + 1 + 10 = 11
7/27 Saturday
10:00 Hattiesburg (39402) 1 + 1 + 11 = 13
10:00 Hattiesburg (39402)
11:00 Gautier (39553) 0 + 4 + 16 = 20
12:00 Ridgeland (39157) 4 + 4 + 4 = 12
2:00 Pearl (39208) 1 + 5 + 23 = 29
5:00 Pearl (39208) 1 + 8 + 32 = 41
7/28 Sunday
12:00 Ridgeland (39157) 0 + 2 + 7 = 9
12:00 Gautier (39553) 0 + 2 + 19 = 21
2:00 Pearl (39208) 0 + 0 + 6 = 6
Missouri
7/20 Saturday
12:01 Crestwood (63126) 1 + 5 + 33 = 39
12:01 Independence (64050) 0 + 0 + 14 = 14
9:00 West Plains (65775) 1 + 0 + 5 = 6
9:30 Crestwood (63126) 1 + 11 + 26 = 38
10:00 Columbia (65202) 7 + 3 + 24 = 34
12:00 West Plains (65775) 1 + 0 + 7 = 8
12:00 Saint Louis (63128) 3 + 8 + 9 = 20
12:00 Springfield (65804) 0 + 6 + 6 = 12
12:00 Independence (64050) 0 + 2 + 9 = 11
12:00 O'Fallon (63366) 0 + 3 + 12 = 15
1:30 Sedalia (65301) 2 + 5 + 13 = 20
5:00 Springfield (65804) 2 + 5 + 12 = 19
7/21 Sunday
12:00 Springfield (65804) 0 + 2 + 6 = 8
12:00 Creve Coeur (63141) 4 + 4 + 11 = 19
12:30 Maplewood (63143) 2 + 7 + 9 = 18
1:30 Independence (64050-3705) 0 + 0 + 7 = 7
1:30 Sedalia (65301) 1 + 4 + 11 = 16
2:00 Kansas City (64106) 3 + 1 + 4 = 8
4:00 Sedalia (65301) 0 + 0 + 10 = 10
4:00 Independence (64050-3705) 0 + 1 + 5 = 6
7/22 Monday
5:30 St. Peters (63303) 1 + 0 + 10 = 11
7/24 Wednesday
6:30 Crestwood (63126) 0 + 7 + 35 = 42
7/26 Friday
5:30 St. Peters (63303) 4 + 3 + 19 = 26
7/27 Saturday
12:00 Independence (64050-3705) 1 + 0 + 11 = 12
Montana
7/20 Saturday
11:00 Missoula (59801) 0 + 0 + 8 = 8
Nebraska
7/20 Saturday
10:00 McCook (69001) 3 + 4 + 4 = 11
12:00 Omaha (68144) 0 + 3 + 11 = 14
3:00 Omaha (68144) 0 + 2 + 4 = 6
10:00 Omaha (68164) 0 + 2 + 6 = 8
7/21 Sunday
12:00 Omaha (68164) 0 + 2 + 12 = 14
12:00 Kearney (68845) 1 + 5 + 6 = 12
1:00 Lincoln (68506) 8 + 13 + 16 = 37
1:30 Omaha (68164) 0 + 2 + 7 = 9
3:00 Kearney (68845) 0 + 1 + 7 = 8
7/22 Monday
5:00 Omaha (68144) 4 + 5 + 16 = 25
8:00 Omaha (68144) 0 + 1 + 8 = 9
7/23 Tuesday
11:00 Bellevue (68005) 4 + 1 + 19 = 24
7/24 Wednesday
12:00 Ralston (68127) 0 + 1 + 6 = 7
7/25 Thursday
4:00 Omaha (68164) 1 + 0 + 19 = 20
6:00 Omaha (68164) 1 + 0 + 8 = 9
7/26 Friday
5:30 Omaha (68134) 9 + 8 + 20 = 37
Nevada
7/20 Saturday
9:00 Las Vegas (89147) 2 + 2 + 10 = 14
11:30 Reno (89502) 0 + 0 + 13 = 13
12:00 Las Vegas (89123) 3 + 3 + 14 = 20
12:00 Las Vegas (89146) 4 + 2 + 19 = 25
7/21 Sunday
11:00 Reno (89502) 0 + 0 + 5 = 5
7/24 Wednesday
11:00 Las Vegas (89131) 1 + 3 + 25 = 29
New Brunswick
7/20 Saturday
11:30 Saint John (E2M 7X1) 2 + 2 + 5 = 9
7/21 Sunday
12:30 Fredericton (E3B 3B9) 0 + 0 + 11 = 11
7/27 Saturday
11:00 Moncton (E1C2N4) 0 + 1 + 6 = 7
New Hampshire
7/20 Saturday
10:00 Londonderry (03053) 4 + 1 + 12 = 17
11:00 Rochester (03867) 0 + 1 + 10 = 11
2:00 Nashua (03063) 6 + 0 + 12 = 18
7/25 Thursday
5:00 Rochester (03867) 1 + 7 + 14 = 22
7/27 Saturday
11:00 MANCHESTER (03103) 0 + 1 + 4 = 5
2:00 Nashua (03063) 5 + 1 + 10 = 16
7/28 Sunday
10:00 Lebanon (03766) 1 + 1 + 18 = 20
10:30 Rochester (03867) 0 + 0 + 10 = 10
11:00 Manchester (03103) 3 + 2 + 5 = 10
2:00 Londonderry (03053) 2 + 4 + 19 = 25
New Jersey
7/20 Saturday
9:00 Cedar Grove (07009) 5 + 1 + 24 = 30
10:00 Matawan (07747) 1 + 2 + 10 = 13
10:00 Cedar Grove (07009) 1 + 1 + 6 = 8
10:00 Cedar Grove (07009) 0 + 0 + 11 = 11
11:00 Cinnaminson (08077) 0 + 0 + 19 = 19
12:00 Franklin (07416) 1 + 4 + 16 = 21
12:00 Livingston (07039) 5 + 7 + 12 = 24
12:00 FAIR HAVEN (07704-3372) 3 + 2 + 5 = 10
1:00 Franklin (07416) 0 + 3 + 9 = 12
1:00 Matawan (07747) 0 + 2 + 8 = 10
2:30 Pompton Plains (07444) 3 + 2 + 7 = 12
2:30 Cinnaminson (08077) 0 + 0 + 8 = 8
4:00 Hillsdale (07642) 5 + 2 + 10 = 17
11:00 Boonton (07005) 0 + 1 + 20 = 21
7/21 Sunday
10:30 somerville (08876) 5 + 3 + 12 = 20
11:30 Randolph (07869) 2 + 3 + 13 = 18
12:00 Boonton (07005) 1 + 1 + 12 = 14
2:00 Randolph (07869) 0 + 2 + 8 = 10
2:30 Cinnaminson (08077) 1 + 1 + 5 = 7
7/26 Friday
6:00 Boonton (07005) 9 + 6 + 35 = 50
7/27 Saturday
12:00 FAIR HAVEN (07704-3372) 4 + 3 + 3 = 10
7/28 Sunday
11:00 Egg Harbor Township (08234) 4 + 3 + 13 = 20
11:00 Hamilton (08619) 5 + 5 + 19 = 29
New Mexico
7/20 Saturday
10:00 Albuquerque (87124) 0 + 1 + 11 = 12
New York
7/20 Saturday
9:30 New York (10016) 2 + 1 + 31 = 34
10:00 Rochester (14623) 2 + 6 + 28 = 36
10:00 CROTON ON HUDSON (10520) 6 + 10 + 14 = 30
10:00 Catskill (12414) 4 + 5 + 10 = 19
11:00 Mechanicville (12118) 0 + 1 + 17 = 18
11:00 Whitesboro (13492) 1 + 1 + 12 = 14
11:00 Brooklyn (11229) 0 + 0 + 8 = 8
12:00 Williamsville (14221) 4 + 7 + 15 = 26
12:00 Brooklyn (11232) 3 + 0 + 3 = 6
12:00 Binghamton (13905) 2 + 4 + 13 = 19
12:00 Lindenhurst (11757) 2 + 1 + 17 = 20
12:00 Nanuet (10954) 0 + 1 + 7 = 8
1:00 Oneida (13421) 5 + 3 + 12 = 20
1:30 Kenmore (14217) 0 + 0 + 9 = 9
2:00 Lynbrook (11563) 3 + 2 + 17 = 22
2:30 Brooklyn (11229) 0 + 0 + 9 = 9
2:30 Selden (11784) 2 + 2 + 21 = 25
3:00 Lindenhurst (11757) 1 + 2 + 18 = 21
11:45 Kenmore (14217) 0 + 0 + 13 = 13
7/21 Sunday
9:30 New York (10016) 2 + 0 + 20 = 22
10:30 Rochester (14623) 3 + 2 + 16 = 21
11:00 Flushing (11354) 1 + 2 + 17 = 20
12:00 Brooklyn (11231) 9 + 1 + 2 = 12
12:00 Kenmore (14217) 1 + 0 + 7 = 8
1:00 Hyde Park (12538) 2 + 0 + 10 = 12
1:30 Flushing (11354) 1 + 0 + 9 = 10
2:00 Lynbrook (11563) 1 + 0 + 11 = 12
2:30 Selden (11784) 6 + 3 + 17 = 26
7/22 Monday
5:00 Eden (14057) 1 + 8 + 28 = 37
7/23 Tuesday
6:00 Brooklyn (11214) 2 + 0 + 12 = 14
6:00 Selden (11784) 0 + 0 + 17 = 17
7/24 Wednesday
6:00 Selden (11784) 0 + 2 + 21 = 23
6:30 Brooklyn (11229) 0 + 0 + 8 = 8
7/25 Thursday
6:00 Albany (12205) 3 + 4 + 15 = 22
6:00 Selden (11784) 0 + 0 + 6 = 6
7/27 Saturday
10:00 CROTON ON HUDSON (10520) 2 + 10 + 11 = 23
11:00 Albany (12205) 1 + 2 + 5 = 8
11:00 Whitesboro (13492) 0 + 1 + 8 = 9
12:00 Clifton Park (12065) 1 + 1 + 10 = 12
12:30 Wantagh (11793) 1 + 3 + 22 = 26
1:00 Kenmore (14217) 1 + 0 + 15 = 16
7/28 Sunday
12:00 Rochester (14625) 10 + 7 + 7 = 24
12:00 Kenmore (14217) 1 + 1 + 7 = 9
12:00 East Greenbush (12061) 1 + 1 + 18 = 20
12:30 Wantagh (11793) 3 + 3 + 19 = 25
Newfoundland and Labrador
7/20 Saturday
1:00 Mount Pearl (A1N 1W3) 1 + 1 + 9 = 11
North Carolina
7/20 Saturday
9:00 High Point (27263) 1 + 1 + 10 = 12
9:30 Cary (27511) 4 + 9 + 25 = 38
10:30 Charlotte (28214) 18 + 10 + 16 = 44
11:00 Hickory (28602) 1 + 2 + 7 = 10
11:00 Wilson (27893) 1 + 1 + 12 = 14
11:00 Greenville (27858) 0 + 1 + 6 = 7
11:59 Statesville (28625) 0 + 2 + 10 = 12
12:00 Jacksonville (28546) 1 + 2 + 18 = 21
12:00 Cary (27511) 7 + 4 + 18 = 29
12:00 Asheville (28803) 2 + 2 + 13 = 17
1:00 Charlotte (28214) 3 + 4 + 10 = 17
2:00 Hickory (28602) 1 + 6 + 17 = 24
2:00 Wilmington (28403) 3 + 2 + 6 = 11
2:30 Statesville (28625) 0 + 2 + 11 = 13
3:30 Cary (27511) 0 + 1 + 7 = 8
7/21 Sunday
11:00 Durham (27707) 10 + 4 + 21 = 35
12:00 Greenville (27858) 0 + 1 + 3 = 4
12:01 Kannapolis (28083) 0 + 1 + 11 = 12
2:00 Wilmington (28403) 3 + 6 + 12 = 21
3:20 Kannapolis (28083) 2 + 1 + 12 = 15
3:30 Charlotte (28214) 2 + 3 + 12 = 17
7/24 Wednesday
5:00 Charlotte (28214) 2 + 1 + 11 = 14
7/27 Saturday
10:30 Charlotte (28214) 3 + 1 + 3 = 7
11:00 Wilson (27893) 0 + 0 + 5 = 5
11:59 Statesville (28625) 2 + 1 + 12 = 15
1:00 Charlotte (28214) 3 + 3 + 5 = 11
7/28 Sunday
11:00 Raleigh (27612) 1 + 0 + 7 = 8
12:00 Raleigh (27603) 8 + 7 + 23 = 38
12:00 Charlotte (28262) 1 + 0 + 7 = 8
12:01 Kannapolis (28083) 0 + 2 + 7 = 9
1:00 Cornelius (28031) 1 + 2 + 14 = 17
1:00 Wilson (27893) 1 + 3 + 6 = 10
2:00 Wilmington (28403) 3 + 1 + 14 = 18
3:20 Kannapolis (28083) 0 + 1 + 5 = 6
North Dakota
7/25 Thursday
5:30 Fargo (58103) 1 + 1 + 10 = 12
Nova Scotia
7/27 Saturday
12:30 Halifax (B3K 2Z1) 2 + 5 + 15 = 22
7/28 Sunday
12:00 Halifax (B3J 3J8) 1 + 3 + 14 = 18
Ohio
7/20 Saturday
12:01 Akron (44308) 1 + 0 + 35 = 36
12:01 Massillon (44646) 0 + 0 + 25 = 25
12:05 Findlay (45840) 1 + 2 + 12 = 15
11:00 Belpre (45714) 0 + 0 + 9 = 9
11:00 Columbus (43210) 1 + 0 + 11 = 12
11:45 Alliance (44601) 0 + 0 + 4 = 4
12:00 Toledo (43613) 2 + 3 + 19 = 24
1:00 Columbus (43210) 2 + 2 + 11 = 15
3:00 Columbus (43210) 2 + 0 + 10 = 12
4:00 Ashtabula (44004) 1 + 4 + 27 = 32
5:00 Kent (44242) 0 + 1 + 6 = 7
8:00 Dublin (43017) 0 + 0 + 6 = 6
11:30 Dublin (43017) 2 + 4 + 21 = 27
7/21 Sunday
11:00 Sandusky (44870) 0 + 1 + 17 = 18
12:00 North Canton (44720) 2 + 3 + 14 = 19
1:30 Streetsboro (44241) 1 + 0 + 14 = 15
2:30 North Canton (44720) 0 + 1 + 8 = 9
7/22 Monday
5:00 Green (44685) 2 + 5 + 13 = 20
7/23 Tuesday
5:30 Canton (44718) 2 + 5 + 9 = 16
6:30 Columbus (43229) 6 + 3 + 28 = 37
6:45 Strongsville (44136) 1 + 2 + 24 = 27
7/24 Wednesday
5:30 Massillon (44646) 0 + 1 + 13 = 14
6:15 Akron (44308) 2 + 1 + 23 = 26
6:30 Findlay (45840) 4 + 0 + 4 = 8
7/25 Thursday
5:00 Ashtabula (44004) 1 + 1 + 26 = 28
6:00 Avon (44011) 2 + 1 + 17 = 20
6:00 Dayton (45419) 2 + 2 + 19 = 23
7/27 Saturday
10:00 North Olmsted (44070) 3 + 8 + 23 = 34
11:00 Belpre (45714) 1 + 1 + 9 = 11
12:00 Findlay (45840) 3 + 2 + 14 = 19
1:00 North Olmsted (44070) 0 + 2 + 11 = 13
2:30 Strongsville (44136) 1 + 2 + 7 = 10
7/28 Sunday
10:00 Columbus (43214) 3 + 0 + 10 = 13
12:00 Mentor (44060) 2 + 2 + 17 = 21
12:00 Kettering (45429) 2 + 6 + 51 = 59
12:00 Galion (44833) 0 + 0 + 15 = 15
12:15 Alliance (44601) 2 + 2 + 9 = 13
3:00 Columbus (43214) 0 + 0 + 6 = 6
5:00 Mansfield (44907) 1 + 2 + 17 = 20
Oklahoma
7/20 Saturday
12:01 Tulsa (74112) 2 + 3 + 15 = 20
9:00 Tulsa (74112) 2 + 3 + 23 = 28
10:00 Oklahoma City (73139) 3 + 3 + 24 = 30
12:00 Jenks (74037) 0 + 0 + 10 = 10
4:30 WOODWARD (73801) 2 + 4 + 6 = 12
7/21 Sunday
12:30 NORMAN (73072) 2 + 0 + 18 = 20
7/22 Monday
5:00 Norman (73069) 0 + 0 + 16 = 16
7/25 Thursday
6:00 Stillwater (74074) 0 + 0 + 4 = 4
7/27 Saturday
10:00 Moore (73160) 1 + 3 + 20 = 24
11:00 Lawton (73501) 1 + 6 + 10 = 17
12:00 Jenks (74037) 1 + 0 + 11 = 12
7/28 Sunday
12:00 Tulsa (74133) 3 + 3 + 19 = 25
Ontario
7/20 Saturday
12:01 Toronto (M4J 1M9) 1 + 0 + 6 = 7
12:01 Toronto (M1V 1K4) 1 + 0 + 28 = 29
10:00 Mississauga (L5A 3Y1) 5 + 3 + 23 = 31
10:00 Toronto (M1V 1K4) 2 + 5 + 13 = 20
10:30 Brampton (L6Z 1R3) 0 + 10 + 11 = 21
11:00 Toronto (M4Y 1X9) 1 + 1 + 21 = 23
11:00 oakville (L6K2G3) 5 + 7 + 13 = 25
11:00 Kitchener (N2G 2L2) 0 + 2 + 11 = 13
11:30 Vaughan (L4J7Y3) 0 + 1 + 14 = 15
11:30 Mississauga (L5L 3A2) 4 + 3 + 16 = 23
12:00 Ottawa (K2J 5G4) 1 + 4 + 11 = 16
1:00 Markham (L3R 9Y2) 1 + 0 + 29 = 30
1:30 Barrie (L4N5W4) 1 + 4 + 17 = 22
3:00 Kitchener (N2G 2L2) 0 + 5 + 13 = 18
3:30 Markham (L3R 9Y2) 1 + 1 + 24 = 26
5:30 Markham (L3R 9Y2) 2 + 0 + 24 = 26
7/21 Sunday
2:30 Vaughan (L4J7Y3) 0 + 1 + 12 = 13
10:00 Milton (L9T 5B2) 5 + 3 + 23 = 31
10:00 Whitby (L1N 8R3) 10 + 3 + 12 = 25
10:30 Guelph (N1H7T8) 2 + 3 + 15 = 20
11:00 Toronto (M4Y 1X9) 1 + 0 + 20 = 21
11:00 oakville (L6K2G3) 4 + 3 + 9 = 16
11:00 Kingston (K7L 1G2) 1 + 1 + 6 = 8
11:00 Mississauga (L5N 6A3) 3 + 4 + 7 = 14
11:30 Vaughan (L4J7Y3) 1 + 1 + 7 = 9
11:30 Mississauga (L5L 3A2) 2 + 5 + 10 = 17
11:30 Brampton (L6Z 1R3) 0 + 8 + 10 = 18
11:30 Barrie (L4M 6J4) 0 + 2 + 10 = 12
12:00 St Catharines (L2R 5J3) 0 + 2 + 6 = 8
12:00 Orangeville (L9W 1K2) 7 + 2 + 3 = 12
12:00 Ottawa (K1K 3B7) 4 + 4 + 14 = 22
12:00 Vaughan (L4K 2A1) 8 + 4 + 38 = 50
12:10 Windsor (N8W 1C2) 5 + 3 + 11 = 19
1:00 Toronto (M4J 1M9) 3 + 4 + 9 = 16
2:00 Mississauga (L5N 6A3) 2 + 5 + 13 = 20
4:00 Toronto (M1V 1K4) 5 + 3 + 6 = 14
6:00 Toronto (M1V 1K4) 1 + 1 + 5 = 7
7/22 Monday
7:00 Markham (L3R 9Y2) 0 + 0 + 9 = 9
7/23 Tuesday
6:00 Kingston (K7P 2P2) 1 + 6 + 12 = 19
5:00 Welland (L3C1L8) 1 + 2 + 11 = 14
7/24 Wednesday
4:00 Milton (L9T 1P7) 5 + 0 + 5 = 10
7/25 Thursday
7:15 Toronto (M1V 1K4) 0 + 0 + 8 = 8
7/26 Friday
6:30 Toronto (M1V 1K4) 2 + 1 + 22 = 25
7/27 Saturday
10:00 Mississauga (L5A 3Y1) 0 + 10 + 22 = 32
10:00 Ridgeway (L0S 1N0) 1 + 1 + 4 = 6
11:00 oakville (L6K2G3) 5 + 3 + 9 = 17
11:00 North York (M4N 2N4) 1 + 7 + 1 = 9
11:30 Brampton (L6T 4P7) 3 + 1 + 7 = 11
11:30 Vaughan (L4K 2A1) 3 + 4 + 14 = 21
1:30 Barrie (L4N5W4) 4 + 2 + 23 = 29
2:00 Cambridge (N3C 2A7) 2 + 1 + 9 = 12
5:00 Waterloo (N2L 6L7) 0 + 4 + 6 = 10
7/28 Sunday
10:00 Milton (L9T 5B2) 4 + 1 + 20 = 25
11:00 London (N6E 3M2) 3 + 7 + 12 = 22
11:30 Barrie (L4M 6J4) 1 + 4 + 5 = 10
12:00 North York (M4N 2N4) 2 + 2 + 7 = 11
2:40 Windsor (N8W 1C2) 3 + 4 + 9 = 16
5:00 Waterloo (N2L 6L7) 3 + 3 + 4 = 10
Oregon
7/20 Saturday
Salem (97301) 4 + 8 + 24 = 36
12:05 Sherwood (97140) 0 + 1 + 12 = 13
9:30 Aloha (97003) 10 + 11 + 15 = 36
11:00 Milwaukie (97267) 1 + 6 + 30 = 37
2:00 Medford (97501) 0 + 4 + 11 = 15
2:00 Portland (97214) 7 + 13 + 37 = 57
4:00 ONTARIO (97914) 4 + 6 + 6 = 16
4:30 Portland (97214) 0 + 4 + 14 = 18
11:30 Troutdale (97060) 4 + 6 + 11 = 21
7/21 Sunday
12:00 Wilsonville (97070) 0 + 3 + 12 = 15
7/22 Monday
5:30 Troutdale (97060) 5 + 6 + 8 = 19
7/23 Tuesday
5:30 Milwaukie (97068) 1 + 8 + 23 = 32
7/25 Thursday
5:00 Gresham (97030) 2 + 1 + 9 = 12
6:30 Beaverton (97005) 3 + 4 + 23 = 30
7/26 Friday
6:00 Cottage Grove (97424) 7 + 5 + 16 = 28
7/27 Saturday
10:00 Bend (97702) 1 + 1 + 12 = 14
12:30 Portland (97202) 7 + 5 + 0 = 12
7/28 Sunday
12:00 Salem (97317) 1 + 1 + 13 = 15
Pennsylvania
7/20 Saturday
12:01 Altoona (16602) 2 + 2 + 9 = 13
12:01 Philadelphia (19152) 1 + 2 + 17 = 20
12:01 Lancaster (17603) 0 + 0 + 12 = 12
10:00 East Norriton (19401) 4 + 5 + 25 = 34
11:00 Mechanicsburg (17050) 0 + 5 + 7 = 12
11:00 Monroeville (15146) 3 + 5 + 12 = 20
11:00 COOPERSBURG (18036) 5 + 1 + 17 = 23
11:00 Lancaster (17603) 0 + 1 + 3 = 4
12:00 Bellefonte (16823) 2 + 0 + 6 = 8
12:00 Altoona (16602) 2 + 4 + 9 = 15
12:00 Greensburg (15601) 0 + 1 + 11 = 12
12:00 Ebensburg (15931) 2 + 0 + 9 = 11
12:00 Pleasant Hills (15236) 0 + 1 + 45 = 46
12:30 East Norriton (19401) 4 + 4 + 21 = 29
1:00 Homestead (15120) 2 + 0 + 8 = 10
1:30 West Chester (19380) 3 + 6 + 5 = 14
3:00 COOPERSBURG (18036) 0 + 0 + 6 = 6
4:00 Cranberry Township (16066) 1 + 0 + 7 = 8
4:00 Lancaster (17603) 1 + 2 + 7 = 10
7/21 Sunday
12:00 Bellefonte (16823) 1 + 1 + 7 = 9
12:00 Boyertown (19512) 0 + 0 + 16 = 16
12:00 York (17402) 5 + 3 + 13 = 21
12:00 New Holland (17557) 0 + 0 + 4 = 4
12:00 Grove City (16127) 2 + 0 + 13 = 15
1:00 Stroudsburg (18360) 0 + 3 + 5 = 8
1:30 West Chester (19380) 2 + 5 + 7 = 14
2:00 York (17402) 1 + 2 + 5 = 8
4:00 Stroudsburg (18360) 0 + 1 + 5 = 6
7/23 Tuesday
5:00 Lancaster (17603) 1 + 0 + 8 = 9
7/24 Wednesday
4:00 Pittsburgh (15232) 6 + 3 + 24 = 33
5:00 sharon (16146) 2 + 3 + 7 = 12
5:30 Chambersburg (17201) 3 + 3 + 22 = 28
7/25 Thursday
5:30 Mechanicsburg (17050) 6 + 4 + 4 = 14
7/26 Friday
6:00 West Chester (19380) 4 + 2 + 10 = 16
7/27 Saturday
12:00 Philadelphia (19104) 1 + 0 + 10 = 11
12:00 Lock Haven (17745) 0 + 0 + 8 = 8
3:30 LATROBE (15650) 0 + 2 + 4 = 6
7/28 Sunday
10:00 Gettysburg (17325) 4 + 0 + 13 = 17
11:00 Philadelphia (19152) 1 + 1 + 7 = 9
12:30 Cranberry Township (16066) 1 + 2 + 9 = 12
1:00 Stroudsburg (18360) 1 + 1 + 8 = 10
2:30 LEBANON (17042) 3 + 2 + 13 = 18
4:00 Stroudsburg (18360) 1 + 3 + 6 = 10
Puerto Rico
7/20 Saturday
Caguas (00725) 1 + 2 + 31 = 34
7/21 Sunday
Carolina (00983) 0 + 0 + 30 = 30
12:00 Aguadilla (00603) 0 + 1 + 15 = 16
Quebec
7/20 Saturday
9:00 sherbrooke (J1J 2N9) 6 + 3 + 7 = 16
9:00 Gatineau (J9H 6J5) 2 + 1 + 6 = 9
9:30 joliette (Qc) 0 + 5 + 14 = 19
10:00 Gatineau (J9H 6J5) 1 + 4 + 8 = 13
10:30 Verdun (H4G1W6) 0 + 0 + 11 = 11
11:00 Chateauguay (J6K 1C4) 0 + 2 + 9 = 11
11:00 Montreal (H3B 1H5) 1 + 0 + 15 = 16
12:00 Chateauguay (J6K 3J9) 1 + 2 + 8 = 11
12:00 Québec (G1V4P7) 2 + 0 + 6 = 8
12:00 Montreal (H2K2H9) 0 + 1 + 17 = 18
1:00 Montreal (H3L 2E8) 1 + 0 + 10 = 11
1:00 joliette (J6E 5E8) 0 + 2 + 10 = 12
5:00 Granby (J2G 2V6) 3 + 3 + 8 = 14
5:00 Longueuil (J4K 2E3) 1 + 2 + 23 = 26
7/21 Sunday
9:00 Sherbrooke (J1H 5A9) 5 + 4 + 5 = 14
9:00 Gatineau (J8T 6H5) 1 + 1 + 6 = 8
10:30 Verdun (H4G1W6) 0 + 0 + 10 = 10
11:00 Chateauguay (J6K 1C4) 0 + 2 + 8 = 10
11:00 Saint-Jerome (J7Z5M3) 2 + 2 + 9 = 13
11:00 Montreal (H3B 1H5) 1 + 1 + 13 = 15
12:00 Chateauguay (J6K 3J9) 1 + 2 + 10 = 13
12:00 joliette (J6E 5E8) 1 + 4 + 8 = 13
1:00 montreal (H4G 1W5) 1 + 2 + 5 = 8
7/23 Tuesday
10:00 ste-therese (J7E3H5) 0 + 1 + 11 = 12
5:00 Montreal (H3B 1H5) 0 + 0 + 18 = 18
7:00 sherbrooke (J1J 2N9) 4 + 5 + 5 = 14
7/25 Thursday
6:00 Saint-Jerome (J7Z5M3) 0 + 0 + 6 = 6
7/26 Friday
5:00 Quebec (G1G 5X3) 0 + 3 + 27 = 30
7/27 Saturday
10:00 Chateauguay (J6K 1C4) 0 + 4 + 5 = 9
11:00 Quebec (G1G 5X3) 1 + 1 + 19 = 21
11:00 Montreal (H3B 1H5) 0 + 0 + 13 = 13
12:00 Chateauguay (J6K 3J9) 0 + 0 + 8 = 8
1:00 montreal (H4G 1W5) 2 + 0 + 4 = 6
1:00 Quebec (G1G 5X3) 0 + 1 + 18 = 19
7/28 Sunday
9:30 Montréal (H2R 1P8) 1 + 3 + 4 = 8
10:00 Chateauguay (J6K 1C4) 0 + 2 + 7 = 9
11:00 Saint-Jerome (J7Z5M3) 2 + 3 + 8 = 13
11:00 Montreal (H3B 1H5) 0 + 0 + 8 = 8
12:00 Chateauguay (J6K 3J9) 0 + 0 + 8 = 8
1:30 Montréal (H2R 1P8) 1 + 3 + 4 = 8
Rhode Island
7/20 Saturday
12:00 Pawtucket (02860) 2 + 3 + 16 = 21
1:15 Warwick (02888) 1 + 1 + 22 = 24
7/28 Sunday
11:00 West Warwick (02893) 1 + 2 + 6 = 9
South Carolina
7/20 Saturday
12:01 Rock Hill (29730) 3 + 3 + 25 = 31
10:00 Lexington (29072) 3 + 5 + 32 = 40
10:30 Columbia (29210) 6 + 5 + 26 = 37
11:30 Rock Hill (29730) 3 + 5 + 4 = 12
12:00 Myrtle Beach (29588) 9 + 9 + 24 = 42
1:00 Easley (29640) 4 + 3 + 10 = 17
5:00 Greenville (29607) 5 + 7 + 18 = 30
7/21 Sunday
9:00 Myrtle Beach (29588) 12 + 15 + 40 = 67
2:00 Anderson (29621) 1 + 1 + 5 = 7
7/23 Tuesday
6:00 Greenville (29607) 1 + 0 + 9 = 10
7/25 Thursday
6:00 Easley (29640) 3 + 2 + 5 = 10
7/26 Friday
6:30 Rock Hill (29730) 5 + 2 + 16 = 23
7/27 Saturday
11:30 Rock Hill (29730) 1 + 3 + 8 = 12
12:00 Summerville (29485) 5 + 3 + 25 = 33
1:00 Greenville (29607) 2 + 2 + 5 = 9
2:30 Rock Hill (29730) 3 + 5 + 15 = 23
4:00 Summerville (29485) 1 + 0 + 8 = 9
7/28 Sunday
2:00 Anderson (29621) 0 + 0 + 4 = 4
South Dakota
7/20 Saturday
9:00 Sioux Falls (57104) 0 + 5 + 19 = 24
2:00 Sioux Falls (57104) 0 + 7 + 20 = 27
7/27 Saturday
11:00 Rapid City (57701) 3 + 2 + 15 = 20
Tennessee
7/20 Saturday
12:01 Madison (37115) 0 + 0 + 10 = 10
9:00 Clarksville (37042) 2 + 8 + 21 = 31
10:00 Memphis (38133) 3 + 3 + 23 = 29
10:00 Knoxville (37919) 1 + 3 + 9 = 13
11:00 Murfreesboro (37130) 2 + 3 + 33 = 38
12:00 Seymour (37865) 3 + 0 + 14 = 17
12:00 Madison (37115) 0 + 0 + 14 = 14
12:00 Chattanooga (37421) 1 + 0 + 6 = 7
12:01 Franklin (37217) 2 + 7 + 8 = 17
3:00 Madison (37115) 2 + 0 + 18 = 20
3:00 Murfreesboro (37129) 2 + 0 + 14 = 16
3:00 Murfreesboro (37129) 4 + 6 + 30 = 40
6:00 Madison (37115) 2 + 0 + 10 = 12
7/21 Sunday
10:00 Clarksville (37042) 0 + 3 + 11 = 14
12:00 Jefferson City (37760) 4 + 5 + 9 = 18
12:00 Oak Ridge (37830) 6 + 3 + 9 = 18
12:00 Maryville (37801) 1 + 3 + 8 = 12
12:00 Chattanooga (37415) 3 + 2 + 11 = 16
12:00 Madison (37115) 1 + 2 + 14 = 17
4:00 Madison (37115) 2 + 3 + 18 = 23
7/23 Tuesday
5:00 Morristown (37813) 2 + 0 + 11 = 13
7/24 Wednesday
5:00 Knoxville (37924) 3 + 4 + 27 = 34
7/27 Saturday
1:00 Chattanooga (37411) 4 + 2 + 17 = 23
7/28 Sunday
12:00 Bristol (37620) 1 + 2 + 21 = 24
Texas
7/20 Saturday
12:01 San Antonio (78231) 0 + 1 + 37 = 38
12:01 Bedford (76021) 0 + 3 + 44 = 47
12:01 Waco (76706) 0 + 0 + 18 = 18
9:00 McKinney (75070) 4 + 7 + 14 = 25
10:00 El Paso (79902) 0 + 0 + 14 = 14
10:00 Hurst (76053) 0 + 2 + 25 = 27
10:00 El Paso (79902) 1 + 1 + 17 = 19
11:00 Waco (76710) 0 + 1 + 3 = 4
11:00 Houston (77077) 6 + 5 + 26 = 37
11:00 Bedford (76021) 2 + 3 + 16 = 21
11:00 Conroe (77301) 4 + 4 + 21 = 29
11:00 Dallas (75247) 2 + 2 + 14 = 18
12:00 Tyler (75707) 6 + 4 + 14 = 24
12:00 San Antonio (78253) 8 + 7 + 38 = 53
1:00 Garland (75043) 0 + 2 + 16 = 18
1:00 College Station (77840) 1 + 1 + 6 = 8
1:00 Frisco (75034) 2 + 4 + 25 = 31
1:00 Dallas (75287) 0 + 1 + 11 = 12
2:00 Keller (76244) 0 + 2 + 4 = 6
3:00 Irving (75062) 1 + 0 + 26 = 27
3:00 Frisco (75034) 1 + 1 + 17 = 19
3:00 Bedford (76021) 1 + 2 + 15 = 18
4:00 Longview (75604) 4 + 2 + 8 = 14
5:00 Fort Worth (76244) 0 + 0 + 8 = 8
5:00 Waco (76701) 1 + 1 + 8 = 10
6:00 fort worth (76140) 2 + 1 + 6 = 9
6:00 San Antonio (78201) 0 + 2 + 16 = 18
7/21 Sunday
10:00 Austin (78757) 11 + 15 + 29 = 55
12:00 Tyler (75701) 1 + 1 + 10 = 12
12:00 San Antonio (78229) 4 + 1 + 45 = 50
12:00 Humble (77338) 5 + 3 + 8 = 16
12:01 Denison (75020) 0 + 3 + 15 = 18
12:30 Houston (77089) 2 + 8 + 24 = 34
1:00 Frisco (75034) 0 + 0 + 11 = 11
1:00 New Braunfels (78130) 1 + 1 + 6 = 8
1:00 Bedford (76021) 2 + 4 + 35 = 41
1:00 Dallas (75287) 0 + 0 + 8 = 8
1:00 Laredo (78041) 0 + 0 + 19 = 19
3:00 Frisco (75034) 0 + 2 + 4 = 6
4:00 Copperas Cove (76522) 1 + 1 + 12 = 14
7/22 Monday
6:30 San Antonio (78229) 1 + 2 + 17 = 20
7/23 Tuesday
6:00 Houston (77098) 3 + 2 + 27 = 32
7/24 Wednesday
6:00 El Paso (79935) 2 + 3 + 15 = 20
6:30 Dallas (75287) 0 + 0 + 6 = 6
7/25 Thursday
4:30 Conroe (77301) 3 + 1 + 22 = 26
5:00 Waco (76701) 0 + 0 + 8 = 8
6:00 Houston (77077) 2 + 6 + 30 = 38
6:00 EL PASO (79925) 3 + 4 + 33 = 40
6:30 Dallas (75287) 0 + 1 + 6 = 7
7:45 fort worth (76140) 0 + 0 + 22 = 22
7/26 Friday
5:00 Waco (76706) 0 + 1 + 6 = 7
6:00 Sugar Land (77478) 0 + 1 + 14 = 15
7/27 Saturday
9:00 Brownwood (76801) 0 + 0 + 20 = 20
11:00 Bedford (76021) 1 + 3 + 9 = 13
11:00 Conroe (77301) 2 + 2 + 8 = 12
12:00 Cypress (77429) 3 + 2 + 11 = 16
12:00 Tyler (75707) 4 + 2 + 11 = 17
12:00 Lubbock (79412) 0 + 3 + 7 = 10
12:00 Waco (76710) 1 + 0 + 3 = 4
12:00 EL PASO (79925) 4 + 3 + 28 = 35
1:00 Frisco (75034) 1 + 2 + 9 = 12
3:00 Frisco (75034) 4 + 2 + 7 = 13
3:00 Bedford (76021) 2 + 1 + 6 = 9
4:00 Longview (75604) 2 + 2 + 6 = 10
7/28 Sunday
9:00 Copperas Cove (76522) 3 + 1 + 11 = 15
12:00 Corpus Christi (78413) 2 + 4 + 21 = 27
12:00 Tyler (75701) 2 + 0 + 6 = 8
12:00 Humble (77338) 3 + 3 + 6 = 12
12:30 Katy (77494) 0 + 2 + 8 = 10
1:00 Frisco (75034) 0 + 2 + 4 = 6
1:00 New Braunfels (78130) 3 + 5 + 37 = 45
1:00 Bedford (76021) 0 + 3 + 16 = 19
2:00 San Angelo (76903) 6 + 5 + 7 = 18
3:00 Frisco (75034) 0 + 0 + 14 = 14
Utah
7/20 Saturday
10:00 West Valley City (84119) 2 + 2 + 25 = 29
11:00 Saint George (84770) 0 + 2 + 6 = 8
11:00 Layton (84041) 0 + 0 + 9 = 9
1:30 Tooele (84074) 2 + 2 + 5 = 9
4:00 Salt Lake City (84111) 4 + 1 + 9 = 14
4:30 Layton (84041) 4 + 3 + 13 = 20
7/22 Monday
5:00 West Valley City (84119) 0 + 0 + 9 = 9
7/23 Tuesday
5:30 Midvale (84047) 1 + 7 + 28 = 36
7/24 Wednesday
5:30 Sandy (84094) 0 + 2 + 17 = 19
7/25 Thursday
5:30 Tooele (84074) 0 + 2 + 10 = 12
5:30 Bountiful (84010) 3 + 3 + 9 = 15
7/26 Friday
6:00 Sandy (84070) 5 + 5 + 16 = 26
7/27 Saturday
11:00 Saint George (84770) 0 + 2 + 6 = 8
1:00 Salt Lake City (84111) 1 + 1 + 11 = 13
3:00 St. George (84790) 5 + 10 + 6 = 21
5:30 North Ogden (84414) 0 + 0 + 12 = 12
Vermont
7/27 Saturday
11:00 Rutland (05701) 0 + 1 + 3 = 4
Virginia
7/20 Saturday
10:00 Ashburn (20147) 3 + 1 + 14 = 18
11:00 Fredericksburg (22401) 1 + 1 + 11 = 13
11:00 Richmond (23228) 1 + 0 + 13 = 14
12:00 Chantilly (20151) 8 + 11 + 35 = 54
12:00 Roanoke (24016) 1 + 6 + 14 = 21
12:00 Portsmouth (23701) 7 + 6 + 18 = 31
12:45 Lynchburg (24502) 1 + 2 + 8 = 11
2:00 Fredericksburg (22401) 1 + 1 + 10 = 12
3:00 Richmond (23228) 0 + 1 + 7 = 8
3:00 Chantilly (20151) 0 + 1 + 7 = 8
5:00 Richmond (23228) 1 + 1 + 2 = 4
7/21 Sunday
9:00 Virginia Beach (23452) 0 + 0 + 8 = 8
11:00 Fredericksburg (22401) 0 + 0 + 13 = 13
12:00 Portsmouth (23701) 3 + 2 + 17 = 22
2:00 Fredericksburg (22401) 0 + 0 + 9 = 9
2:45 Fincastle (24090) 0 + 3 + 5 = 8
7/22 Monday
3:45 Lexington (24450) 2 + 2 + 2 = 6
7/26 Friday
6:00 Richmond (23228) 1 + 3 + 11 = 15
7/27 Saturday
11:00 Richmond (23228) 0 + 4 + 4 = 8
11:00 Virginia Beach (23456) 1 + 5 + 14 = 20
1:00 Chantilly (20151) 5 + 10 + 18 = 33
7/28 Sunday
12:00 Woodbridge (22192) 2 + 5 + 12 = 19
12:00 Harrisonburg (22802) 2 + 1 + 8 = 11
1:00 Charlottesville (22901) 3 + 2 + 11 = 16
Washington
7/20 Saturday
12:01 SPOKANE VALLEY (99206) 1 + 0 + 11 = 12
12:05 Lakewood (98499) 0 + 0 + 17 = 17
10:00 Spokane (99201) 0 + 0 + 4 = 4
10:00 Richland (99354) 5 + 4 + 26 = 35
10:30 Redmond (98052) 7 + 7 + 19 = 33
11:00 Ellensburg (98926) 3 + 0 + 1 = 4
12:00 Spokane (99201) 0 + 0 + 4 = 4
12:00 Bremerton (98337) 5 + 5 + 23 = 33
12:00 Marysville (98270) 1 + 1 + 5 = 7
12:30 Spokane Valley (99206) 0 + 1 + 6 = 7
1:30 Richland (99354) 2 + 4 + 19 = 25
2:30 SPOKANE VALLEY (99206) 1 + 0 + 5 = 6
2:30 Redmond (98052) 0 + 0 + 10 = 10
3:00 Puyallup (98373) 0 + 3 + 17 = 20
3:00 Spokane Valley (99216) 3 + 0 + 1 = 4
3:00 Seattle (98107) 4 + 4 + 12 = 20
7:00 Ellensburg (98926) 0 + 1 + 3 = 4
7/21 Sunday
11:00 Lakewood (98499) 0 + 0 + 4 = 4
11:30 Spokane (99207) 1 + 1 + 17 = 19
12:00 Lacey (98503) 4 + 5 + 15 = 24
12:00 EVERETT (98208) 2 + 4 + 23 = 29
12:30 Mt Vernon (98273) 1 + 0 + 3 = 4
1:00 Lakewood (98499) 0 + 0 + 4 = 4
2:30 SPOKANE VALLEY (99206) 2 + 0 + 10 = 12
5:00 Anacortes (98221) 0 + 2 + 6 = 8
7/22 Monday
4:30 Auburn (98002) 2 + 3 + 9 = 14
7/23 Tuesday
5:30 Spokane (99207) 4 + 4 + 20 = 28
7/25 Thursday
5:30 SPOKANE VALLEY (99206) 3 + 0 + 15 = 18
6:00 Lakewood (98499) 0 + 1 + 7 = 8
6:00 Marysville (98270) 2 + 1 + 7 = 10
7/26 Friday
4:30 Kent (98032) 0 + 1 + 5 = 6
5:30 Tukwila (98188) 5 + 1 + 6 = 12
7/27 Saturday
11:00 Ellensburg (98926) 0 + 2 + 8 = 10
11:00 Edmonds (98026) 4 + 3 + 21 = 28
11:30 Tacoma (98406) 4 + 3 + 20 = 27
12:30 Spokane (99207) 2 + 0 + 11 = 13
1:00 Renton (98058) 2 + 2 + 5 = 9
7/28 Sunday
11:00 Bellevue (98005) 6 + 5 + 17 = 28
12:00 Seattle (98109) 2 + 2 + 3 = 7
12:30 Mt Vernon (98273) 0 + 0 + 6 = 6
2:00 Bellevue (98005) 1 + 2 + 7 = 10
5:00 Anacortes (98221) 2 + 1 + 7 = 10
West Virginia
7/20 Saturday
12:00 Morgantown (26501) 8 + 2 + 10 = 20
7/21 Sunday
1:30 Bridgeport (26330) 1 + 2 + 8 = 11
7/27 Saturday
11:00 Beckley (25801) 1 + 1 + 7 = 9
7/28 Sunday
12:00 Morgantown (26501) 9 + 2 + 5 = 16
Wisconsin
7/20 Saturday
12:01 De Pere (54115) 0 + 0 + 14 = 14
9:00 Appleton (54915) 0 + 0 + 14 = 14
9:00 Appleton (54915) 0 + 2 + 16 = 18
9:00 Green Bay (54304) 3 + 3 + 4 = 10
12:30 De Pere (54115) 1 + 1 + 12 = 14
2:30 De Pere (54115) 0 + 1 + 14 = 15
4:30 De Pere (54115) 0 + 2 + 7 = 9
7/21 Sunday
11:00 Madison (53719) 2 + 3 + 26 = 31
12:00 Kenosha (53142) 0 + 1 + 4 = 5
12:00 Green Bay (54302) 2 + 1 + 5 = 8
12:30 Menomonie (54751) 0 + 0 + 5 = 5
12:30 De Pere (54115) 1 + 0 + 11 = 12
2:30 De Pere (54115) 1 + 3 + 4 = 8
3:30 Menomonie (54751) 0 + 0 + 4 = 4
7/22 Monday
1:30 De Pere (54115) 2 + 0 + 2 = 4
7/23 Tuesday
10:30 De Pere (54115) 8 + 1 + 1 = 10
3:00 Sheboygan (53081) 1 + 4 + 12 = 17
7/24 Wednesday
12:00 Green Bay (54302) 3 + 2 + 5 = 10
4:00 Waukesha (53189) 1 + 2 + 15 = 18
5:00 Menomonie (54751) 0 + 0 + 7 = 7
7/25 Thursday
3:00 Appleton (54915) 1 + 0 + 12 = 13
3:30 De Pere (54115) 0 + 1 + 4 = 5
5:30 De Pere (54115) 0 + 0 + 10 = 10
7/27 Saturday
9:00 Appleton (54915) 0 + 3 + 5 = 8
9:00 Green Bay (54304) 0 + 1 + 16 = 17
11:00 Oconomowoc (53066) 0 + 3 + 22 = 25
11:00 River Falls (54022) 2 + 4 + 4 = 10
11:00 La Crosse (54601) 1 + 2 + 9 = 12
12:30 De Pere (54115) 0 + 0 + 4 = 4
1:00 Eau Claire (54701) 3 + 1 + 6 = 10
2:30 De Pere (54115) 0 + 2 + 4 = 6
4:00 Eau Claire (54701) 0 + 0 + 9 = 9
7/28 Sunday
11:00 La Crosse (54601) 0 + 1 + 9 = 10
11:00 Madison (53716) 4 + 7 + 11 = 22
11:00 Stevens Point (54481) 1 + 3 + 4 = 8
12:00 Racine (53405) 3 + 6 + 20 = 29
12:00 Kenosha (53142) 0 + 2 + 2 = 4
12:00 Green Bay (54302) 0 + 3 + 5 = 8
12:00 Two Rivers (54241) 0 + 0 + 4 = 4
12:30 Oshkosh (54902) 4 + 4 + 5 = 13
3:30 De Pere (54115) 0 + 1 + 4 = 5
Wyoming
7/27 Saturday
10:00 Casper (82601) 3 + 3 + 13 = 19